United States > Florida

Belleair Bluffs, FL (33770)

12:48 PM EDT on July 07, 2015 (GMT -0400)
Bayside Court-Clearwater, Fl | | Change Station
CLOSE
Current Station
Personal Weather Station
Location: Clearwater, FL
Elevation: 59 ft
Nearby Weather Stations

Elev 59 ft 27.93 °N, 82.80 °W | Updated 16 seconds ago

Clear
Clear
88.0 °F
Feels Like 95 °F
N
0.0
Wind Variable Wind from NE
Gusts 5.3 mph

Today
High -- | Low -- °F
--% Chance of Precip.
Yesterday
High -- | Low -- °F
Precip. -- in
6:40 AM 8:31 PM
Waning Gibbous, 63% visible
Pressure 30.17 in
Visibility 10.0 miles
Clouds Clear
Heat Index 95 °F
Dew Point 72 °F
Humidity 59%
Rainfall 0.06 in
Snow Depth Not available.
UV 15 out of 12
Pollen 3.50 out of 12
Air Quality Not available.
Flu Activity Not available.
SPECI KPIE 071636Z 04004KT 10SM VCTS CLR 31/21 A3017 RMK AO2 T03110211

More Conditions Fewer Conditions

Pressure 30.17 in
Visibility 10.0 miles
Clouds Clear
Heat Index 95 °F
Dew Point 72 °F
Humidity 59%
Rainfall 0.06 in
Snow Depth Not available.
UV 15 out of 12
Pollen 3.50 out of 12
Air Quality Not available.
Flu Activity Not available.
SPECI KPIE 071636Z 04004KT 10SM VCTS CLR 31/21 A3017 RMK AO2 T03110211

More Conditions Fewer Conditions

10-Day Weather Forecast

×

Almanac

Astronomy

Jul. 07, 2015 Rise Set
Actual Time
Civil Twilight
Nautical Twilight
Astronomical Twilight
Moon
Length of Visible Light
Length of Day
Tomorrow will be .
, % of the Moon is Illuminated

Today's Extremes

State Highs State Lows

Community

WunderPhotos

Upload Photos

1,835,849 photos uploaded!

WunderBlogs® & News

Nearby

Air Quality

  Air Quality AQ Index Pollutant
Not available.

Snow Depth

Station Depth Elevation

Earthquake Activity

City Distance Mag. Time & Date
Minimum magnitude displayed is 2.5.

Coastal Water Temperatures

Place Temperature

Stations

Nearby Weather Stations

Station Location Temp. Windchill Dew Point Humidity Wind Precip. Elev Updated Type